sensor_id;sensor_type;location;lat;lon;timestamp;pressure;altitude;pressure_sealevel;temperature;humidity
55263;BME280;41125;48.752;9.168;2022-07-25T00:00:17;96716.00;;;22.70;55.09
55263;BME280;41125;48.752;9.168;2022-07-25T00:00:48;96711.25;;;22.71;55.12
55263;BME280;41125;48.752;9.168;2022-07-25T00:01:23;96717.59;;;22.71;54.96
55263;BME280;41125;48.752;9.168;2022-07-25T00:01:53;96703.38;;;22.73;55.13
55263;BME280;41125;48.752;9.168;2022-07-25T00:02:25;96706.56;;;22.75;54.86
55263;BME280;41125;48.752;9.168;2022-07-25T00:02:56;96701.03;;;22.75;54.82
55263;BME280;41125;48.752;9.168;2022-07-25T00:03:27;96703.09;;;22.78;54.66
55263;BME280;41125;48.752;9.168;2022-07-25T00:03:58;96708.25;;;22.80;54.70
55263;BME280;41125;48.752;9.168;2022-07-25T00:04:29;96699.94;;;22.80;54.60
55263;BME280;41125;48.752;9.168;2022-07-25T00:05:00;96709.03;;;22.80;54.37
55263;BME280;41125;48.752;9.168;2022-07-25T00:05:32;96699.56;;;22.81;54.38
55263;BME280;41125;48.752;9.168;2022-07-25T00:06:04;96699.56;;;22.81;54.26
55263;BME280;41125;48.752;9.168;2022-07-25T00:06:34;96697.19;;;22.80;54.40
55263;BME280;41125;48.752;9.168;2022-07-25T00:07:05;96693.25;;;22.81;54.13
55263;BME280;41125;48.752;9.168;2022-07-25T00:07:36;96697.97;;;22.80;54.55
55263;BME280;41125;48.752;9.168;2022-07-25T00:08:07;96697.97;;;22.80;54.37
55263;BME280;41125;48.752;9.168;2022-07-25T00:08:38;96693.25;;;22.81;54.40
55263;BME280;41125;48.752;9.168;2022-07-25T00:09:10;96695.22;;;22.80;54.54
55263;BME280;41125;48.752;9.168;2022-07-25T00:09:41;96695.22;;;22.80;54.48
55263;BME280;41125;48.752;9.168;2022-07-25T00:10:12;96695.22;;;22.80;53.95
55263;BME280;41125;48.752;9.168;2022-07-25T00:10:43;96696.38;;;22.79;54.14
55263;BME280;41125;48.752;9.168;2022-07-25T00:11:14;96701.13;;;22.79;54.17
55263;BME280;41125;48.752;9.168;2022-07-25T00:11:44;96690.06;;;22.79;54.26
55263;BME280;41125;48.752;9.168;2022-07-25T00:12:15;96690.06;;;22.79;54.27
55263;BME280;41125;48.752;9.168;2022-07-25T00:12:46;96691.19;;;22.78;54.38
55263;BME280;41125;48.752;9.168;2022-07-25T00:13:17;96693.97;;;22.78;54.20
55263;BME280;41125;48.752;9.168;2022-07-25T00:13:48;96691.19;;;22.78;54.15
55263;BME280;41125;48.752;9.168;2022-07-25T00:14:19;96690.06;;;22.79;54.18
55263;BME280;41125;48.752;9.168;2022-07-25T00:14:50;96695.59;;;22.79;54.05
55263;BME280;41125;48.752;9.168;2022-07-25T00:15:20;96696.38;;;22.79;53.84
55263;BME280;41125;48.752;9.168;2022-07-25T00:15:52;96691.19;;;22.78;54.24
55263;BME280;41125;48.752;9.168;2022-07-25T00:16:23;96697.56;;;22.78;53.77
55263;BME280;41125;48.752;9.168;2022-07-25T00:16:54;96689.25;;;22.78;53.94
55263;BME280;41125;48.752;9.168;2022-07-25T00:17:24;96689.25;;;22.78;53.57
55263;BME280;41125;48.752;9.168;2022-07-25T00:17:55;96690.41;;;22.77;53.90
55263;BME280;41125;48.752;9.168;2022-07-25T00:18:26;96691.56;;;22.76;53.82
55263;BME280;41125;48.752;9.168;2022-07-25T00:18:57;96690.78;;;22.76;53.95
55263;BME280;41125;48.752;9.168;2022-07-25T00:19:28;96689.97;;;22.75;54.01
55263;BME280;41125;48.752;9.168;2022-07-25T00:19:59;96689.19;;;22.74;53.95
55263;BME280;41125;48.752;9.168;2022-07-25T00:20:31;96689.19;;;22.74;53.55
55263;BME280;41125;48.752;9.168;2022-07-25T00:21:02;96686.00;;;22.72;54.11
55263;BME280;41125;48.752;9.168;2022-07-25T00:21:34;96684.03;;;22.73;53.80
55263;BME280;41125;48.752;9.168;2022-07-25T00:22:05;96680.47;;;22.72;53.82
55263;BME280;41125;48.752;9.168;2022-07-25T00:22:36;96680.47;;;22.72;53.71
55263;BME280;41125;48.752;9.168;2022-07-25T00:23:07;96684.41;;;22.71;54.11
55263;BME280;41125;48.752;9.168;2022-07-25T00:23:39;96682.81;;;22.70;53.71
55263;BME280;41125;48.752;9.168;2022-07-25T00:24:10;96691.09;;;22.70;53.71
55263;BME280;41125;48.752;9.168;2022-07-25T00:24:42;96692.28;;;22.69;53.78
55263;BME280;41125;48.752;9.168;2022-07-25T00:25:15;96675.69;;;22.69;53.97
55263;BME280;41125;48.752;9.168;2022-07-25T00:25:46;96687.91;;;22.68;53.82
55263;BME280;41125;48.752;9.168;2022-07-25T00:26:17;96691.47;;;22.69;53.75
55263;BME280;41125;48.752;9.168;2022-07-25T00:26:49;96685.16;;;22.68;53.78
55263;BME280;41125;48.752;9.168;2022-07-25T00:27:19;96685.53;;;22.67;53.91
55263;BME280;41125;48.752;9.168;2022-07-25T00:27:50;96693.03;;;22.66;53.77
55263;BME280;41125;48.752;9.168;2022-07-25T00:28:21;96684.72;;;22.66;53.88
55263;BME280;41125;48.752;9.168;2022-07-25T00:28:53;96686.69;;;22.66;53.73
55263;BME280;41125;48.752;9.168;2022-07-25T00:29:24;96681.97;;;22.66;54.13
55263;BME280;41125;48.752;9.168;2022-07-25T00:29:55;96685.53;;;22.67;53.68
55263;BME280;41125;48.752;9.168;2022-07-25T00:30:27;96686.69;;;22.66;53.64
55263;BME280;41125;48.752;9.168;2022-07-25T00:31:01;96690.63;;;22.65;53.78
55263;BME280;41125;48.752;9.168;2022-07-25T00:31:32;96690.22;;;22.63;53.93
55263;BME280;41125;48.752;9.168;2022-07-25T00:32:05;96688.25;;;22.63;53.84
55263;BME280;41125;48.752;9.168;2022-07-25T00:32:36;96685.06;;;22.61;53.96
55263;BME280;41125;48.752;9.168;2022-07-25T00:33:13;96684.25;;;22.61;53.78
55263;BME280;41125;48.752;9.168;2022-07-25T00:33:46;96694.94;;;22.62;53.84
55263;BME280;41125;48.752;9.168;2022-07-25T00:34:18;96687.03;;;22.61;53.70
55263;BME280;41125;48.752;9.168;2022-07-25T00:34:49;96694.16;;;22.62;53.72
55263;BME280;41125;48.752;9.168;2022-07-25T00:35:22;96690.22;;;22.63;53.52
55263;BME280;41125;48.752;9.168;2022-07-25T00:35:53;96691.00;;;22.63;53.75
55263;BME280;41125;48.752;9.168;2022-07-25T00:36:28;96687.81;;;22.61;53.63
55263;BME280;41125;48.752;9.168;2022-07-25T00:37:00;96685.06;;;22.61;53.54
55263;BME280;41125;48.752;9.168;2022-07-25T00:37:31;96685.06;;;22.61;53.76
55263;BME280;41125;48.752;9.168;2022-07-25T00:38:03;96690.59;;;22.61;53.75
55263;BME280;41125;48.752;9.168;2022-07-25T00:38:35;96694.53;;;22.60;53.75
55263;BME280;41125;48.752;9.168;2022-07-25T00:39:06;96687.41;;;22.59;53.51
55263;BME280;41125;48.752;9.168;2022-07-25T00:39:37;96692.94;;;22.59;54.01
55263;BME280;41125;48.752;9.168;2022-07-25T00:40:14;96692.94;;;22.59;53.96
55263;BME280;41125;48.752;9.168;2022-07-25T00:40:46;96692.94;;;22.59;53.78
55263;BME280;41125;48.752;9.168;2022-07-25T00:41:17;96685.81;;;22.58;54.13
55263;BME280;41125;48.752;9.168;2022-07-25T00:41:48;96695.28;;;22.57;53.93
55263;BME280;41125;48.752;9.168;2022-07-25T00:42:18;96688.16;;;22.56;53.83
55263;BME280;41125;48.752;9.168;2022-07-25T00:42:49;96694.47;;;22.57;54.08
55263;BME280;41125;48.752;9.168;2022-07-25T00:43:23;96690.12;;;22.56;54.01
55263;BME280;41125;48.752;9.168;2022-07-25T00:43:54;96690.91;;;22.56;53.81
55263;BME280;41125;48.752;9.168;2022-07-25T00:44:29;96682.62;;;22.56;53.75
55263;BME280;41125;48.752;9.168;2022-07-25T00:45:00;96693.69;;;22.56;53.96
55263;BME280;41125;48.752;9.168;2022-07-25T00:45:31;96692.09;;;22.55;53.89
55263;BME280;41125;48.752;9.168;2022-07-25T00:46:02;96690.50;;;22.54;53.96
55263;BME280;41125;48.752;9.168;2022-07-25T00:46:36;96684.97;;;22.54;53.94
55263;BME280;41125;48.752;9.168;2022-07-25T00:47:07;96690.50;;;22.54;53.92
55263;BME280;41125;48.752;9.168;2022-07-25T00:47:38;96695.66;;;22.56;53.54
55263;BME280;41125;48.752;9.168;2022-07-25T00:48:12;96693.69;;;22.56;54.04
55263;BME280;41125;48.752;9.168;2022-07-25T00:48:43;96688.53;;;22.55;53.89
55263;BME280;41125;48.752;9.168;2022-07-25T00:49:14;96699.22;;;22.56;54.02
55263;BME280;41125;48.752;9.168;2022-07-25T00:49:45;96685.75;;;22.55;53.86
55263;BME280;41125;48.752;9.168;2022-07-25T00:50:16;96692.87;;;22.56;54.03
55263;BME280;41125;48.752;9.168;2022-07-25T00:50:47;96686.56;;;22.55;53.96
55263;BME280;41125;48.752;9.168;2022-07-25T00:51:18;96693.69;;;22.56;53.98
55263;BME280;41125;48.752;9.168;2022-07-25T00:51:49;96701.56;;;22.54;53.95
55263;BME280;41125;48.752;9.168;2022-07-25T00:52:20;96690.50;;;22.54;54.18
55263;BME280;41125;48.752;9.168;2022-07-25T00:52:53;96690.50;;;22.54;54.04
55263;BME280;41125;48.752;9.168;2022-07-25T00:53:25;96682.62;;;22.56;53.93
55263;BME280;41125;48.752;9.168;2022-07-25T00:53:56;96686.56;;;22.55;53.86
55263;BME280;41125;48.752;9.168;2022-07-25T00:54:27;96686.56;;;22.55;54.16
55263;BME280;41125;48.752;9.168;2022-07-25T00:55:01;96688.16;;;22.56;53.71
55263;BME280;41125;48.752;9.168;2022-07-25T00:55:32;96689.31;;;22.55;53.89
55263;BME280;41125;48.752;9.168;2022-07-25T00:56:03;96688.53;;;22.55;53.86
55263;BME280;41125;48.752;9.168;2022-07-25T00:56:38;96682.19;;;22.54;54.30
55263;BME280;41125;48.752;9.168;2022-07-25T00:57:09;96688.09;;;22.53;54.18
55263;BME280;41125;48.752;9.168;2022-07-25T00:57:40;96691.28;;;22.51;54.03
55263;BME280;41125;48.752;9.168;2022-07-25T00:58:11;96688.06;;;22.49;54.26
55263;BME280;41125;48.752;9.168;2022-07-25T00:58:42;96693.97;;;22.48;54.16
55263;BME280;41125;48.752;9.168;2022-07-25T00:59:15;96688.03;;;22.46;54.21
55263;BME280;41125;48.752;9.168;2022-07-25T00:59:49;96693.56;;;22.46;54.31
55263;BME280;41125;48.752;9.168;2022-07-25T01:00:20;96688.03;;;22.46;54.49
55263;BME280;41125;48.752;9.168;2022-07-25T01:00:52;96689.62;;;22.47;54.49
55263;BME280;41125;48.752;9.168;2022-07-25T01:01:22;96686.44;;;22.45;54.42
55263;BME280;41125;48.752;9.168;2022-07-25T01:01:53;96697.50;;;22.45;54.36
55263;BME280;41125;48.752;9.168;2022-07-25T01:02:24;96694.72;;;22.45;54.56
55263;BME280;41125;48.752;9.168;2022-07-25T01:02:56;96694.34;;;22.46;54.45
55263;BME280;41125;48.752;9.168;2022-07-25T01:03:27;96689.66;;;22.50;54.20
55263;BME280;41125;48.752;9.168;2022-07-25T01:03:59;96692.00;;;22.48;54.23
55263;BME280;41125;48.752;9.168;2022-07-25T01:04:31;96693.19;;;22.47;54.42
55263;BME280;41125;48.752;9.168;2022-07-25T01:05:04;96684.87;;;22.47;54.42
55263;BME280;41125;48.752;9.168;2022-07-25T01:05:35;96681.69;;;22.45;54.53
55263;BME280;41125;48.752;9.168;2022-07-25T01:06:06;96690.78;;;22.46;54.70
55263;BME280;41125;48.752;9.168;2022-07-25T01:06:37;96687.66;;;22.47;54.49
55263;BME280;41125;48.752;9.168;2022-07-25T01:07:08;96686.47;;;22.48;54.55
55263;BME280;41125;48.752;9.168;2022-07-25T01:07:39;96689.25;;;22.48;54.89
55263;BME280;41125;48.752;9.168;2022-07-25T01:08:10;96691.97;;;22.45;54.56
55263;BME280;41125;48.752;9.168;2022-07-25T01:08:42;96684.87;;;22.47;54.59
55263;BME280;41125;48.752;9.168;2022-07-25T01:09:12;96688.81;;;22.46;54.76
55263;BME280;41125;48.752;9.168;2022-07-25T01:09:45;96686.00;;;22.43;54.72
55263;BME280;41125;48.752;9.168;2022-07-25T01:10:16;96683.19;;;22.39;54.76
55263;BME280;41125;48.752;9.168;2022-07-25T01:10:51;96679.22;;;22.36;54.99
55263;BME280;41125;48.752;9.168;2022-07-25T01:11:25;96686.28;;;22.34;54.96
55263;BME280;41125;48.752;9.168;2022-07-25T01:11:56;96677.56;;;22.32;55.17
55263;BME280;41125;48.752;9.168;2022-07-25T01:12:29;96682.34;;;22.35;55.10
55263;BME280;41125;48.752;9.168;2022-07-25T01:13:03;96687.44;;;22.33;55.21
55263;BME280;41125;48.752;9.168;2022-07-25T01:13:34;96679.91;;;22.30;55.12
55263;BME280;41125;48.752;9.168;2022-07-25T01:14:09;96681.06;;;22.29;55.28
55263;BME280;41125;48.752;9.168;2022-07-25T01:14:40;96689.38;;;22.29;55.27
55263;BME280;41125;48.752;9.168;2022-07-25T01:15:14;96686.19;;;22.27;55.49
55263;BME280;41125;48.752;9.168;2022-07-25T01:15:45;96683.00;;;22.25;55.43
55263;BME280;41125;48.752;9.168;2022-07-25T01:16:16;96690.84;;;22.23;55.25
55263;BME280;41125;48.752;9.168;2022-07-25T01:16:48;96682.12;;;22.21;55.60
55263;BME280;41125;48.752;9.168;2022-07-25T01:17:22;96692.41;;;22.20;55.88
55263;BME280;41125;48.752;9.168;2022-07-25T01:17:55;96682.12;;;22.21;55.79
55263;BME280;41125;48.752;9.168;2022-07-25T01:18:29;96690.00;;;22.19;56.02
55263;BME280;41125;48.752;9.168;2022-07-25T01:19:13;96690.78;;;22.16;55.94
55263;BME280;41125;48.752;9.168;2022-07-25T01:19:49;96684.41;;;22.12;55.99
55263;BME280;41125;48.752;9.168;2022-07-25T01:20:24;96678.44;;;22.10;56.31
55263;BME280;41125;48.752;9.168;2022-07-25T01:21:05;96691.84;;;22.08;56.26
55263;BME280;41125;48.752;9.168;2022-07-25T01:21:42;96694.59;;;22.08;56.67
55263;BME280;41125;48.752;9.168;2022-07-25T01:22:19;96692.22;;;22.06;56.29
55263;BME280;41125;48.752;9.168;2022-07-25T01:23:09;96689.06;;;22.08;56.58
55263;BME280;41125;48.752;9.168;2022-07-25T01:23:49;96686.63;;;22.02;56.25
55263;BME280;41125;48.752;9.168;2022-07-25T01:24:32;96683.41;;;22.00;56.51
55263;BME280;41125;48.752;9.168;2022-07-25T01:25:04;96683.41;;;22.00;56.44
55263;BME280;41125;48.752;9.168;2022-07-25T01:25:35;96685.37;;;22.00;56.82
55263;BME280;41125;48.752;9.168;2022-07-25T01:26:30;96682.97;;;21.98;56.46
55263;BME280;41125;48.752;9.168;2022-07-25T01:27:05;96680.22;;;21.98;57.02
55263;BME280;41125;48.752;9.168;2022-07-25T01:27:49;96677.87;;;22.00;56.42
55263;BME280;41125;48.752;9.168;2022-07-25T01:28:27;96681.09;;;22.02;56.88
55263;BME280;41125;48.752;9.168;2022-07-25T01:29:11;96670.47;;;22.04;56.85
55263;BME280;41125;48.752;9.168;2022-07-25T01:29:42;96677.16;;;22.03;56.55
55263;BME280;41125;48.752;9.168;2022-07-25T01:30:14;96669.25;;;22.02;56.61
55263;BME280;41125;48.752;9.168;2022-07-25T01:30:51;96677.87;;;22.00;56.73
55263;BME280;41125;48.752;9.168;2022-07-25T01:31:27;96680.22;;;21.98;56.82
55263;BME280;41125;48.752;9.168;2022-07-25T01:32:01;96669.91;;;21.95;56.83
55263;BME280;41125;48.752;9.168;2022-07-25T01:32:45;96678.19;;;21.95;57.05
55263;BME280;41125;48.752;9.168;2022-07-25T01:33:17;96674.25;;;21.96;57.08
55263;BME280;41125;48.752;9.168;2022-07-25T01:33:52;96675.44;;;21.95;56.86
55263;BME280;41125;48.752;9.168;2022-07-25T01:34:23;96672.66;;;21.95;57.09
55263;BME280;41125;48.752;9.168;2022-07-25T01:34:57;96668.31;;;21.94;57.14
55263;BME280;41125;48.752;9.168;2022-07-25T01:35:50;96668.31;;;21.94;57.15
55263;BME280;41125;48.752;9.168;2022-07-25T01:36:24;96668.31;;;21.94;56.92
55263;BME280;41125;48.752;9.168;2022-07-25T01:37:06;96672.66;;;21.95;56.94
55263;BME280;41125;48.752;9.168;2022-07-25T01:37:37;96668.31;;;21.94;56.81
55263;BME280;41125;48.752;9.168;2022-07-25T01:38:11;96668.69;;;21.93;57.03
55263;BME280;41125;48.752;9.168;2022-07-25T01:38:53;96669.06;;;21.91;56.79
55263;BME280;41125;48.752;9.168;2022-07-25T01:39:26;96667.50;;;21.94;57.24
55263;BME280;41125;48.752;9.168;2022-07-25T01:40:00;96668.31;;;21.94;56.87
55263;BME280;41125;48.752;9.168;2022-07-25T01:40:32;96665.56;;;21.94;57.20
55263;BME280;41125;48.752;9.168;2022-07-25T01:41:04;96666.72;;;21.93;56.93
55263;BME280;41125;48.752;9.168;2022-07-25T01:41:47;96663.53;;;21.91;56.96
55263;BME280;41125;48.752;9.168;2022-07-25T01:42:23;96668.25;;;21.91;57.00
55263;BME280;41125;48.752;9.168;2022-07-25T01:42:57;96663.53;;;21.91;57.26
55263;BME280;41125;48.752;9.168;2022-07-25T01:43:29;96659.97;;;21.91;57.03
55263;BME280;41125;48.752;9.168;2022-07-25T01:44:05;96669.06;;;21.91;57.11
55263;BME280;41125;48.752;9.168;2022-07-25T01:44:51;96663.53;;;21.91;57.01
55263;BME280;41125;48.752;9.168;2022-07-25T01:45:23;96662.72;;;21.91;57.23
55263;BME280;41125;48.752;9.168;2022-07-25T01:45:56;96658.00;;;21.91;56.94
55263;BME280;41125;48.752;9.168;2022-07-25T01:46:35;96662.37;;;21.92;57.17
55263;BME280;41125;48.752;9.168;2022-07-25T01:48:04;96665.22;;;21.99;57.29
55263;BME280;41125;48.752;9.168;2022-07-25T01:48:46;96656.94;;;21.99;57.17
55263;BME280;41125;48.752;9.168;2022-07-25T01:50:13;96659.00;;;22.02;57.08
55263;BME280;41125;48.752;9.168;2022-07-25T01:50:46;96659.38;;;22.01;57.14
55263;BME280;41125;48.752;9.168;2022-07-25T01:51:41;96659.72;;;21.99;57.14
55263;BME280;41125;48.752;9.168;2022-07-25T01:52:15;96654.19;;;21.99;57.04
55263;BME280;41125;48.752;9.168;2022-07-25T01:52:46;96651.78;;;21.98;56.93
55263;BME280;41125;48.752;9.168;2022-07-25T01:53:17;96655.78;;;22.00;57.28
55263;BME280;41125;48.752;9.168;2022-07-25T01:53:52;96657.41;;;22.01;56.94
55263;BME280;41125;48.752;9.168;2022-07-25T01:54:26;96653.47;;;22.02;57.06
55263;BME280;41125;48.752;9.168;2022-07-25T01:55:03;96656.25;;;22.02;56.93
55263;BME280;41125;48.752;9.168;2022-07-25T01:55:36;96655.78;;;22.00;57.29
55263;BME280;41125;48.752;9.168;2022-07-25T01:56:27;96652.59;;;21.98;57.13
55263;BME280;41125;48.752;9.168;2022-07-25T01:56:59;96654.94;;;21.96;57.40
55263;BME280;41125;48.752;9.168;2022-07-25T01:58:50;96652.47;;;21.91;57.14
55263;BME280;41125;48.752;9.168;2022-07-25T01:59:27;96653.66;;;21.90;57.47
55263;BME280;41125;48.752;9.168;2022-07-25T01:59:59;96655.66;;;21.93;57.08
55263;BME280;41125;48.752;9.168;2022-07-25T02:00:47;96647.81;;;21.95;57.09
55263;BME280;41125;48.752;9.168;2022-07-25T02:01:24;96646.22;;;21.94;57.02
55263;BME280;41125;48.752;9.168;2022-07-25T02:02:07;96657.25;;;21.94;57.19
55263;BME280;41125;48.752;9.168;2022-07-25T02:02:39;96650.88;;;21.90;57.31
55263;BME280;41125;48.752;9.168;2022-07-25T02:03:13;96645.38;;;21.90;56.94
55263;BME280;41125;48.752;9.168;2022-07-25T02:03:59;96657.16;;;21.87;57.11
55263;BME280;41125;48.752;9.168;2022-07-25T02:04:33;96647.69;;;21.88;56.77
55263;BME280;41125;48.752;9.168;2022-07-25T02:05:09;96649.28;;;21.89;56.66
55263;BME280;41125;48.752;9.168;2022-07-25T02:05:44;96648.13;;;21.90;56.63
55263;BME280;41125;48.752;9.168;2022-07-25T02:06:16;96646.16;;;21.91;56.74
55263;BME280;41125;48.752;9.168;2022-07-25T02:06:51;96650.16;;;21.93;56.71
55263;BME280;41125;48.752;9.168;2022-07-25T02:07:28;96643.81;;;21.93;56.49
55263;BME280;41125;48.752;9.168;2022-07-25T02:08:07;96649.34;;;21.93;56.58
55263;BME280;41125;48.752;9.168;2022-07-25T02:08:44;96648.97;;;21.94;56.51
55263;BME280;41125;48.752;9.168;2022-07-25T02:09:17;96647.87;;;21.99;56.07
55263;BME280;41125;48.752;9.168;2022-07-25T02:09:48;96646.69;;;22.00;56.09
55263;BME280;41125;48.752;9.168;2022-07-25T02:10:19;96646.78;;;22.03;56.45
55263;BME280;41125;48.752;9.168;2022-07-25T02:10:50;96638.53;;;22.07;56.38
55263;BME280;41125;48.752;9.168;2022-07-25T02:11:25;96649.59;;;22.07;56.17
55263;BME280;41125;48.752;9.168;2022-07-25T02:11:57;96646.84;;;22.07;56.36
55263;BME280;41125;48.752;9.168;2022-07-25T02:12:30;96648.81;;;22.06;55.93
55263;BME280;41125;48.752;9.168;2022-07-25T02:13:13;96644.12;;;22.11;56.10
55263;BME280;41125;48.752;9.168;2022-07-25T02:13:47;96635.47;;;22.12;55.87
55263;BME280;41125;48.752;9.168;2022-07-25T02:14:18;96644.97;;;22.15;55.66
55263;BME280;41125;48.752;9.168;2022-07-25T02:14:53;96637.91;;;22.17;55.64
55263;BME280;41125;48.752;9.168;2022-07-25T02:15:28;96649.75;;;22.18;55.83
55263;BME280;41125;48.752;9.168;2022-07-25T02:16:02;96641.03;;;22.16;55.63
55263;BME280;41125;48.752;9.168;2022-07-25T02:16:33;96638.28;;;22.19;55.91
55263;BME280;41125;48.752;9.168;2022-07-25T02:17:05;96635.13;;;22.17;55.78
55263;BME280;41125;48.752;9.168;2022-07-25T02:17:49;96641.03;;;22.16;56.32
55263;BME280;41125;48.752;9.168;2022-07-25T02:18:20;96637.84;;;22.14;56.30
55263;BME280;41125;48.752;9.168;2022-07-25T02:18:54;96643.75;;;22.12;56.41
55263;BME280;41125;48.752;9.168;2022-07-25T02:19:31;96642.53;;;22.10;56.16
55263;BME280;41125;48.752;9.168;2022-07-25T02:20:05;96642.53;;;22.10;56.12
55263;BME280;41125;48.752;9.168;2022-07-25T02:20:39;96638.53;;;22.07;56.12
55263;BME280;41125;48.752;9.168;2022-07-25T02:21:11;96637.75;;;22.06;56.32
55263;BME280;41125;48.752;9.168;2022-07-25T02:21:43;96633.75;;;22.04;56.09
55263;BME280;41125;48.752;9.168;2022-07-25T02:22:24;96640.09;;;22.04;56.15
55263;BME280;41125;48.752;9.168;2022-07-25T02:23:20;96630.69;;;22.09;55.73
55263;BME280;41125;48.752;9.168;2022-07-25T02:24:08;96629.88;;;22.09;55.91
55263;BME280;41125;48.752;9.168;2022-07-25T02:24:49;96631.78;;;22.04;55.71
55263;BME280;41125;48.752;9.168;2022-07-25T02:25:31;96632.59;;;22.05;55.64
55263;BME280;41125;48.752;9.168;2022-07-25T02:26:08;96631.00;;;22.04;55.71
55263;BME280;41125;48.752;9.168;2022-07-25T02:26:42;96636.53;;;22.04;56.01
55263;BME280;41125;48.752;9.168;2022-07-25T02:27:17;96626.69;;;22.06;55.13
55263;BME280;41125;48.752;9.168;2022-07-25T02:27:55;96627.88;;;22.05;55.67
55263;BME280;41125;48.752;9.168;2022-07-25T02:28:30;96630.19;;;22.03;55.60
55263;BME280;41125;48.752;9.168;2022-07-25T02:29:10;96637.59;;;21.99;55.77
55263;BME280;41125;48.752;9.168;2022-07-25T02:29:41;96625.75;;;21.99;55.40
55263;BME280;41125;48.752;9.168;2022-07-25T02:30:15;96622.56;;;21.97;55.48
55263;BME280;41125;48.752;9.168;2022-07-25T02:30:49;96621.03;;;21.99;55.41
55263;BME280;41125;48.752;9.168;2022-07-25T02:31:29;96624.25;;;22.01;55.61
55263;BME280;41125;48.752;9.168;2022-07-25T02:32:05;96629.03;;;22.04;55.23
55263;BME280;41125;48.752;9.168;2022-07-25T02:32:47;96628.28;;;22.08;55.78
55263;BME280;41125;48.752;9.168;2022-07-25T02:33:19;96623.94;;;22.06;55.58
55263;BME280;41125;48.752;9.168;2022-07-25T02:33:50;96626.69;;;22.06;55.29
55263;BME280;41125;48.752;9.168;2022-07-25T02:34:36;96624.34;;;22.09;55.26
55263;BME280;41125;48.752;9.168;2022-07-25T02:35:15;96625.09;;;22.05;55.13
55263;BME280;41125;48.752;9.168;2022-07-25T02:35:49;96620.44;;;22.10;55.23
55263;BME280;41125;48.752;9.168;2022-07-25T02:36:26;96614.47;;;22.08;55.21
55263;BME280;41125;48.752;9.168;2022-07-25T02:37:03;96617.97;;;22.04;55.33
55263;BME280;41125;48.752;9.168;2022-07-25T02:37:35;96614.06;;;22.05;55.30
55263;BME280;41125;48.752;9.168;2022-07-25T02:38:12;96619.56;;;22.05;55.16
55263;BME280;41125;48.752;9.168;2022-07-25T02:38:49;96613.31;;;22.09;55.06
55263;BME280;41125;48.752;9.168;2022-07-25T02:39:20;96620.38;;;22.06;54.89
55263;BME280;41125;48.752;9.168;2022-07-25T02:39:52;96619.56;;;22.05;55.24
55263;BME280;41125;48.752;9.168;2022-07-25T02:40:26;96610.13;;;22.06;55.17
55263;BME280;41125;48.752;9.168;2022-07-25T02:40:57;96615.66;;;22.06;55.42
55263;BME280;41125;48.752;9.168;2022-07-25T02:41:29;96621.97;;;22.07;55.06
55263;BME280;41125;48.752;9.168;2022-07-25T02:42:11;96620.38;;;22.06;55.48
55263;BME280;41125;48.752;9.168;2022-07-25T02:43:14;96614.78;;;22.02;55.27
55263;BME280;41125;48.752;9.168;2022-07-25T02:43:45;96621.12;;;22.03;55.05
55263;BME280;41125;48.752;9.168;2022-07-25T02:44:21;96614.78;;;22.02;55.12
55263;BME280;41125;48.752;9.168;2022-07-25T02:45:00;96619.16;;;22.03;55.35
55263;BME280;41125;48.752;9.168;2022-07-25T02:45:34;96609.28;;;22.02;54.97
55263;BME280;41125;48.752;9.168;2022-07-25T02:46:11;96620.31;;;22.02;55.32
55263;BME280;41125;48.752;9.168;2022-07-25T02:46:45;96615.16;;;22.01;55.28
55263;BME280;41125;48.752;9.168;2022-07-25T02:47:23;96612.41;;;22.01;55.05
55263;BME280;41125;48.752;9.168;2022-07-25T02:48:56;96615.66;;;22.06;54.59
55263;BME280;41125;48.752;9.168;2022-07-25T02:49:32;96608.53;;;22.05;54.38
55263;BME280;41125;48.752;9.168;2022-07-25T02:50:04;96608.53;;;22.05;54.74
55263;BME280;41125;48.752;9.168;2022-07-25T02:50:39;96610.06;;;22.03;54.59
55263;BME280;41125;48.752;9.168;2022-07-25T02:51:13;96607.69;;;22.01;54.95
55263;BME280;41125;48.752;9.168;2022-07-25T02:51:45;96607.69;;;22.01;54.57
55263;BME280;41125;48.752;9.168;2022-07-25T02:52:16;96607.69;;;22.01;55.08
55263;BME280;41125;48.752;9.168;2022-07-25T02:52:50;96602.16;;;22.01;54.91
55263;BME280;41125;48.752;9.168;2022-07-25T02:53:27;96608.81;;;22.00;54.78
55263;BME280;41125;48.752;9.168;2022-07-25T02:53:58;96608.38;;;21.98;54.83
55263;BME280;41125;48.752;9.168;2022-07-25T02:55:24;96603.59;;;21.95;54.85
55263;BME280;41125;48.752;9.168;2022-07-25T02:56:01;96605.62;;;21.98;55.02
55263;BME280;41125;48.752;9.168;2022-07-25T02:56:41;96607.53;;;21.94;54.79
55263;BME280;41125;48.752;9.168;2022-07-25T02:57:22;96607.53;;;21.94;55.04
55263;BME280;41125;48.752;9.168;2022-07-25T02:57:53;96611.03;;;21.91;54.85
55263;BME280;41125;48.752;9.168;2022-07-25T02:58:32;96616.16;;;21.89;55.17
55263;BME280;41125;48.752;9.168;2022-07-25T02:59:06;96608.59;;;21.86;55.28
55263;BME280;41125;48.752;9.168;2022-07-25T02:59:40;96617.75;;;21.90;55.22
55263;BME280;41125;48.752;9.168;2022-07-25T03:00:29;96619.34;;;21.91;54.67
55263;BME280;41125;48.752;9.168;2022-07-25T03:01:06;96619.34;;;21.91;55.16
55263;BME280;41125;48.752;9.168;2022-07-25T03:01:43;96616.19;;;21.93;54.67
55263;BME280;41125;48.752;9.168;2022-07-25T03:02:15;96613.81;;;21.91;54.89
55263;BME280;41125;48.752;9.168;2022-07-25T03:02:49;96613.00;;;21.91;54.68
55263;BME280;41125;48.752;9.168;2022-07-25T03:03:24;96608.22;;;21.88;54.60
55263;BME280;41125;48.752;9.168;2022-07-25T03:03:59;96601.13;;;21.87;54.81
55263;BME280;41125;48.752;9.168;2022-07-25T03:04:39;96606.69;;;21.90;54.99
55263;BME280;41125;48.752;9.168;2022-07-25T03:05:24;96608.72;;;21.93;54.61
55263;BME280;41125;48.752;9.168;2022-07-25T03:05:56;96607.53;;;21.94;54.92
55263;BME280;41125;48.752;9.168;2022-07-25T03:06:33;96605.94;;;21.93;54.66